Time;durP1;ratioP1;P1;durP2;ratioP2;P2;SDS_P1;SDS_P2;PMS_P1;PMS_P2;Temp;Humidity;BMP_temperature;BMP_pressure;BME280_temperature;BME280_humidity;BME280_pressure;Samples;Min_cycle;Max_cycle;Signal;HPM_P1;HPM_P2
2022/04/16 00:00:55;;;;;;;5.05;3.83;;;11.60;51.00;;;;;;4981050;28;20057;-51
2022/04/16 00:03:24;;;;;;;7.13;4.50;;;11.60;51.10;;;;;;4980495;28;20061;-44
2022/04/16 00:05:53;;;;;;;5.88;4.22;;;11.60;51.20;;;;;;4981046;28;20053;-45
2022/04/16 00:08:23;;;;;;;6.40;3.58;;;11.50;51.20;;;;;;4982471;28;20050;-44
2022/04/16 00:10:52;;;;;;;5.40;4.22;;;11.50;51.30;;;;;;4981355;28;20057;-44
2022/04/16 00:13:20;;;;;;;5.60;4.32;;;11.50;51.40;;;;;;4979725;28;20054;-44
2022/04/16 00:15:49;;;;;;;7.28;4.43;;;11.50;51.40;;;;;;4980432;28;20065;-44
2022/04/16 00:18:17;;;;;;;5.63;4.45;;;11.40;51.40;;;;;;4979135;28;20050;-44
2022/04/16 00:20:45;;;;;;;5.57;4.10;;;11.40;51.40;;;;;;4982751;28;20062;-44
2022/04/16 00:23:12;;;;;;;6.47;4.05;;;11.40;51.40;;;;;;4980497;28;20061;-44
2022/04/16 00:25:42;;;;;;;6.30;4.80;;;11.40;51.40;;;;;;4968044;28;20054;-45
2022/04/16 00:28:09;;;;;;;6.00;4.63;;;11.30;51.40;;;;;;4981810;28;20058;-44
2022/04/16 00:30:39;;;;;;;7.65;4.75;;;11.30;51.50;;;;;;4979691;28;20065;-46
2022/04/16 00:33:07;;;;;;;5.32;3.95;;;11.30;51.60;;;;;;4979624;28;20070;-45
2022/04/16 00:35:35;;;;;;;5.53;3.97;;;11.20;51.60;;;;;;4979519;28;20061;-46
2022/04/16 00:38:03;;;;;;;5.03;4.00;;;11.20;51.60;;;;;;4980050;28;20085;-45
2022/04/16 00:40:30;;;;;;;6.63;4.50;;;11.20;51.80;;;;;;4981783;28;20058;-44
2022/04/16 00:43:00;;;;;;;4.05;3.13;;;11.20;51.90;;;;;;4979650;28;20494;-45
2022/04/16 00:45:28;;;;;;;5.47;3.85;;;11.20;52.10;;;;;;4980750;28;20063;-44
2022/04/16 00:47:55;;;;;;;5.03;3.92;;;11.20;52.10;;;;;;4981483;28;20395;-45
2022/04/16 00:50:23;;;;;;;6.15;3.83;;;11.10;52.10;;;;;;4981738;28;20529;-44
2022/04/16 00:52:51;;;;;;;6.50;4.03;;;11.10;52.10;;;;;;4980446;28;20054;-46
2022/04/16 00:55:19;;;;;;;7.65;4.30;;;11.10;52.20;;;;;;4978869;28;20050;-45
2022/04/16 00:57:46;;;;;;;5.75;3.95;;;11.10;52.30;;;;;;4978127;28;20053;-45
2022/04/16 01:00:16;;;;;;;6.68;4.20;;;11.10;52.30;;;;;;4980217;28;20062;-44
2022/04/16 01:02:45;;;;;;;5.70;4.00;;;11.10;52.40;;;;;;4978372;28;20773;-44
2022/04/16 01:05:12;;;;;;;5.38;3.72;;;11.10;52.40;;;;;;4967928;28;20490;-47
2022/04/16 01:07:52;;;;;;;4.40;3.65;;;11.10;52.40;;;;;;4980893;28;20061;-46
2022/04/16 01:10:20;;;;;;;8.25;4.10;;;11.10;52.60;;;;;;4979047;28;20054;-44
2022/04/16 01:12:47;;;;;;;7.63;4.13;;;11.10;52.50;;;;;;4977531;28;20054;-44
2022/04/16 01:15:17;;;;;;;9.27;4.35;;;11.10;52.50;;;;;;4980436;28;20540;-45
2022/04/16 01:17:45;;;;;;;5.38;3.97;;;11.10;52.60;;;;;;4977232;28;20054;-46
2022/04/16 01:20:12;;;;;;;5.95;4.22;;;11.10;52.50;;;;;;4981458;28;20065;-44
2022/04/16 01:22:41;;;;;;;6.88;4.57;;;11.10;52.70;;;;;;4980154;28;20058;-45
2022/04/16 01:25:09;;;;;;;6.90;5.07;;;11.00;52.70;;;;;;4978402;28;20058;-44
2022/04/16 01:27:43;;;;;;;6.43;4.47;;;11.10;52.80;;;;;;4978901;28;20070;-47
2022/04/16 01:30:11;;;;;;;6.13;4.45;;;11.10;52.90;;;;;;4980131;28;20058;-45
2022/04/16 01:32:40;;;;;;;9.50;6.00;;;11.00;52.90;;;;;;4975584;28;20046;-44
2022/04/16 01:35:08;;;;;;;7.13;5.18;;;11.00;53.10;;;;;;4980213;28;20073;-44
2022/04/16 01:37:37;;;;;;;8.18;5.60;;;11.00;53.10;;;;;;4976485;28;20053;-45
2022/04/16 01:40:09;;;;;;;7.53;5.03;;;11.00;53.20;;;;;;4974989;28;20062;-45
2022/04/16 01:49:22;;;;;;;8.10;5.05;;;11.00;53.30;;;;;;4992507;28;20410;-44
2022/04/16 01:51:49;;;;;;;8.80;5.80;;;11.00;53.20;;;;;;4976767;28;20046;-46
2022/04/16 01:54:17;;;;;;;6.00;4.63;;;10.90;53.20;;;;;;4979451;28;20495;-47
2022/04/16 01:56:45;;;;;;;7.15;4.85;;;10.90;53.80;;;;;;4976793;28;20054;-45
2022/04/16 01:59:13;;;;;;;8.07;4.90;;;10.90;53.30;;;;;;4981125;28;20050;-45
2022/04/16 02:01:40;;;;;;;6.50;4.60;;;10.90;53.30;;;;;;4978162;28;20387;-45
2022/04/16 02:04:08;;;;;;;11.07;5.97;;;10.90;53.30;;;;;;4976920;28;20069;-45
2022/04/16 02:06:36;;;;;;;7.70;5.80;;;10.90;53.40;;;;;;4979982;28;20050;-44
2022/04/16 02:09:03;;;;;;;10.30;6.05;;;10.90;53.50;;;;;;4981524;28;20422;-44
2022/04/16 02:11:31;;;;;;;8.13;5.47;;;10.80;53.50;;;;;;4982087;28;20050;-46
2022/04/16 02:14:02;;;;;;;6.75;4.72;;;10.80;53.60;;;;;;4982812;28;20494;-44
2022/04/16 02:16:29;;;;;;;8.07;5.38;;;10.80;53.60;;;;;;4981380;28;20417;-45
2022/04/16 02:18:57;;;;;;;7.10;5.53;;;10.70;53.60;;;;;;4983632;28;20057;-50
2022/04/16 02:21:24;;;;;;;8.15;5.63;;;10.70;53.60;;;;;;4982573;28;20494;-46
2022/04/16 02:23:52;;;;;;;6.90;4.80;;;10.70;53.70;;;;;;4982732;28;20057;-44
2022/04/16 02:26:20;;;;;;;7.47;4.88;;;10.70;53.70;;;;;;4982531;28;20058;-47
2022/04/16 02:28:48;;;;;;;6.45;4.72;;;10.60;53.60;;;;;;4982190;28;20042;-45
2022/04/16 02:31:17;;;;;;;8.02;5.85;;;10.60;54.20;;;;;;4982212;28;20533;-45
2022/04/16 02:33:45;;;;;;;9.18;5.65;;;10.60;53.90;;;;;;4983664;28;20521;-47
2022/04/16 02:36:12;;;;;;;8.85;5.78;;;10.60;54.00;;;;;;4983442;28;20055;-45
2022/04/16 02:38:41;;;;;;;10.30;6.20;;;10.60;54.00;;;;;;4983211;28;20118;-45
2022/04/16 02:41:08;;;;;;;8.35;5.72;;;10.50;54.10;;;;;;4982396;28;20062;-44
2022/04/16 02:43:36;;;;;;;7.47;5.75;;;10.50;54.20;;;;;;4980713;28;20486;-44
2022/04/16 02:48:49;;;;;;;7.85;5.43;;;10.50;54.40;;;;;;4989178;28;20054;-44
2022/04/16 02:51:18;;;;;;;9.18;6.03;;;10.50;54.30;;;;;;4978375;28;20055;-46
2022/04/16 02:53:45;;;;;;;10.32;6.13;;;10.50;54.40;;;;;;4980898;28;20403;-45
2022/04/16 02:56:13;;;;;;;7.30;5.47;;;10.50;54.40;;;;;;4981200;28;20434;-45
2022/04/16 02:58:40;;;;;;;10.07;5.72;;;10.50;54.30;;;;;;4981255;28;20049;-44
2022/04/16 03:01:08;;;;;;;7.78;5.20;;;10.50;54.30;;;;;;4982375;28;20058;-44
2022/04/16 03:03:36;;;;;;;7.97;5.10;;;10.50;54.60;;;;;;4980907;28;20506;-45
2022/04/16 03:06:05;;;;;;;8.00;4.93;;;10.40;54.20;;;;;;4983890;28;20070;-46
2022/04/16 03:08:32;;;;;;;7.32;5.07;;;10.40;54.20;;;;;;4980397;28;20494;-48
2022/04/16 03:11:01;;;;;;;6.78;5.55;;;10.40;54.20;;;;;;4981621;28;20053;-44
2022/04/16 03:13:28;;;;;;;10.95;6.40;;;10.40;54.20;;;;;;4979903;28;20054;-46
2022/04/16 03:18:40;;;;;;;9.65;6.22;;;10.30;54.40;;;;;;4987477;28;20077;-44
2022/04/16 03:21:11;;;;;;;7.82;5.47;;;10.30;54.40;;;;;;4980990;28;20058;-44
2022/04/16 03:23:38;;;;;;;7.60;5.78;;;10.30;54.40;;;;;;4981696;28;20062;-44
2022/04/16 03:26:06;;;;;;;9.65;6.13;;;10.20;54.40;;;;;;4982544;28;20084;-48
2022/04/16 03:28:34;;;;;;;9.35;6.18;;;10.30;54.50;;;;;;4981368;28;20058;-45
2022/04/16 03:31:01;;;;;;;8.77;5.60;;;10.20;54.50;;;;;;4981774;28;20398;-45
2022/04/16 03:33:31;;;;;;;8.85;6.15;;;10.20;54.50;;;;;;4980747;28;20058;-44
2022/04/16 03:35:59;;;;;;;7.65;5.65;;;10.20;54.50;;;;;;4981412;28;20058;-45
2022/04/16 03:38:27;;;;;;;6.95;5.20;;;10.20;54.60;;;;;;4980261;28;20505;-44
2022/04/16 03:40:55;;;;;;;8.75;6.10;;;10.20;54.70;;;;;;4981505;28;20057;-45
2022/04/16 03:43:26;;;;;;;10.70;6.25;;;10.10;54.70;;;;;;4977958;28;20057;-44
2022/04/16 03:45:53;;;;;;;10.02;6.72;;;10.10;54.70;;;;;;4980751;28;20406;-44
2022/04/16 03:48:21;;;;;;;10.05;6.20;;;10.10;54.80;;;;;;4979274;28;20410;-45
2022/04/16 03:50:48;;;;;;;11.23;7.43;;;10.10;54.90;;;;;;4980732;28;20069;-48
2022/04/16 03:53:16;;;;;;;8.68;6.30;;;10.10;54.90;;;;;;4980129;28;20647;-45
2022/04/16 04:01:15;;;;;;;9.48;6.50;;;10.10;55.00;;;;;;4983679;28;20057;-45
2022/04/16 04:03:42;;;;;;;10.75;6.28;;;10.00;54.90;;;;;;4983605;28;20050;-45
2022/04/16 04:06:10;;;;;;;9.60;6.78;;;10.00;55.00;;;;;;4976516;28;20054;-47
2022/04/16 04:08:37;;;;;;;13.02;7.07;;;10.00;55.00;;;;;;4979343;28;20521;-44
2022/04/16 04:11:06;;;;;;;10.25;6.57;;;10.00;55.10;;;;;;4980409;28;20058;-45
2022/04/16 04:13:34;;;;;;;9.05;6.43;;;10.00;55.10;;;;;;4979834;28;20542;-46
2022/04/16 04:16:01;;;;;;;10.10;6.70;;;9.90;55.10;;;;;;4975152;28;20066;-45
2022/04/16 04:18:29;;;;;;;11.25;6.55;;;9.90;55.10;;;;;;4979292;28;20054;-47
2022/04/16 04:20:56;;;;;;;11.50;6.65;;;9.90;55.10;;;;;;4980098;28;20058;-45
2022/04/16 04:23:24;;;;;;;8.52;6.35;;;9.90;55.10;;;;;;4979835;28;20065;-44
2022/04/16 04:25:52;;;;;;;10.65;7.45;;;9.90;55.20;;;;;;4980462;28;20050;-48
2022/04/16 04:28:21;;;;;;;10.50;6.93;;;9.90;55.20;;;;;;4980540;28;20054;-46
2022/04/16 04:30:49;;;;;;;11.70;6.72;;;9.80;55.20;;;;;;4981468;28;20142;-46
2022/04/16 04:33:16;;;;;;;8.85;6.78;;;9.80;55.30;;;;;;4980380;28;20090;-45
2022/04/16 04:35:44;;;;;;;16.77;9.98;;;9.80;55.40;;;;;;4975229;28;20452;-45
2022/04/16 04:38:11;;;;;;;11.02;7.82;;;9.80;55.50;;;;;;4980366;28;20502;-44
2022/04/16 04:40:39;;;;;;;12.02;7.32;;;9.80;55.70;;;;;;4981006;28;20294;-44
2022/04/16 04:43:06;;;;;;;10.25;6.78;;;9.70;55.70;;;;;;4980298;28;20050;-44
2022/04/16 04:45:35;;;;;;;11.27;7.53;;;9.70;55.90;;;;;;4976142;28;20053;-45
2022/04/16 04:48:02;;;;;;;10.13;6.63;;;9.70;56.00;;;;;;4978224;28;20058;-46
2022/04/16 04:50:30;;;;;;;10.00;7.13;;;9.70;56.10;;;;;;4976947;28;20414;-44
2022/04/16 04:52:57;;;;;;;12.38;6.75;;;9.70;56.10;;;;;;4980883;28;20050;-44
2022/04/16 04:55:25;;;;;;;10.82;7.45;;;9.70;56.10;;;;;;4977917;28;20051;-44
2022/04/16 04:57:54;;;;;;;10.82;6.80;;;9.70;56.10;;;;;;4978200;28;20634;-44
2022/04/16 05:00:21;;;;;;;11.05;6.43;;;9.80;56.20;;;;;;4978682;28;20051;-44
2022/04/16 05:02:51;;;;;;;9.85;6.95;;;9.80;56.20;;;;;;4980233;28;20568;-44
2022/04/16 05:05:19;;;;;;;18.65;8.48;;;9.70;56.20;;;;;;4979783;28;20410;-44
2022/04/16 05:07:46;;;;;;;10.50;7.03;;;9.80;56.30;;;;;;4976096;28;20058;-44
2022/04/16 05:10:14;;;;;;;10.20;7.13;;;9.80;56.40;;;;;;4979886;28;20422;-46
2022/04/16 05:12:41;;;;;;;10.10;7.13;;;9.80;56.50;;;;;;4979741;28;20065;-44
2022/04/16 05:15:09;;;;;;;12.23;7.13;;;9.80;56.60;;;;;;4978443;28;20058;-44
2022/04/16 05:17:37;;;;;;;9.27;6.45;;;9.90;56.70;;;;;;4978941;28;20054;-45
2022/04/16 05:20:09;;;;;;;10.95;7.68;;;9.90;56.70;;;;;;4979137;28;20129;-44
2022/04/16 05:22:37;;;;;;;11.23;6.32;;;9.90;56.80;;;;;;4976508;28;20051;-46
2022/04/16 05:25:05;;;;;;;10.90;7.15;;;9.90;56.80;;;;;;4980177;28;20061;-45
2022/04/16 05:27:34;;;;;;;11.02;7.50;;;9.90;56.80;;;;;;4979136;28;20058;-44
2022/04/16 05:30:22;;;;;;;14.02;7.93;;;10.00;56.90;;;;;;4978134;28;20046;-50
2022/04/16 05:32:50;;;;;;;12.93;8.75;;;10.00;56.90;;;;;;4977048;28;20054;-44
2022/04/16 05:35:19;;;;;;;19.38;9.75;;;10.00;56.90;;;;;;4975829;28;20061;-45
2022/04/16 05:37:47;;;;;;;20.20;10.65;;;10.10;57.00;;;;;;4980910;28;20395;-44
2022/04/16 05:40:14;;;;;;;13.98;8.68;;;10.10;57.00;;;;;;4979008;28;20061;-45
2022/04/16 05:42:43;;;;;;;12.60;8.35;;;10.10;57.10;;;;;;4973647;28;20055;-45
2022/04/16 05:45:14;;;;;;;12.18;8.07;;;10.20;57.10;;;;;;4977090;28;21109;-44
2022/04/16 05:47:43;;;;;;;13.10;8.77;;;10.20;57.50;;;;;;4977705;28;20055;-47
2022/04/16 05:50:11;;;;;;;11.73;7.68;;;10.30;57.00;;;;;;4980028;28;20054;-46
2022/04/16 05:52:41;;;;;;;12.32;7.85;;;10.30;57.00;;;;;;4978362;28;20058;-45
2022/04/16 05:55:10;;;;;;;13.25;8.77;;;10.40;56.90;;;;;;4978566;28;20058;-44
2022/04/16 05:57:37;;;;;;;12.32;8.43;;;10.40;56.90;;;;;;4978785;28;20406;-44
2022/04/16 06:00:06;;;;;;;13.77;8.60;;;10.50;56.90;;;;;;4978484;28;20060;-49
2022/04/16 06:02:34;;;;;;;51.10;23.38;;;10.50;57.00;;;;;;4973313;28;20051;-44
2022/04/16 06:05:01;;;;;;;25.20;13.48;;;10.60;56.90;;;;;;4974080;28;20055;-45
2022/04/16 06:07:29;;;;;;;16.20;9.40;;;10.60;56.90;;;;;;4976556;28;20054;-44
2022/04/16 06:09:58;;;;;;;13.43;8.88;;;10.70;56.80;;;;;;4976664;28;20945;-47
2022/04/16 06:12:27;;;;;;;15.18;9.52;;;10.80;56.80;;;;;;4977437;28;20058;-45
2022/04/16 06:14:54;;;;;;;15.85;9.90;;;10.80;56.70;;;;;;4976829;28;20073;-46
2022/04/16 06:17:22;;;;;;;16.40;9.68;;;10.80;56.60;;;;;;4977354;28;20510;-45
2022/04/16 06:19:49;;;;;;;14.82;9.70;;;10.90;56.60;;;;;;4979631;28;20065;-47
2022/04/16 06:22:17;;;;;;;15.35;10.15;;;11.00;56.50;;;;;;4975437;28;20509;-47
2022/04/16 06:24:44;;;;;;;17.42;10.75;;;11.00;56.40;;;;;;4972933;28;20054;-45
2022/04/16 06:27:13;;;;;;;14.15;9.43;;;11.10;56.40;;;;;;4975484;28;20069;-46
2022/04/16 06:29:41;;;;;;;16.88;9.80;;;11.10;56.30;;;;;;4977242;28;20057;-45
2022/04/16 06:32:09;;;;;;;17.40;10.75;;;11.10;56.40;;;;;;4979477;28;20054;-48
2022/04/16 06:34:36;;;;;;;20.58;10.43;;;11.20;56.40;;;;;;4980085;28;20414;-46
2022/04/16 06:37:04;;;;;;;16.48;10.00;;;11.20;56.40;;;;;;4978817;28;20058;-44
2022/04/16 06:39:32;;;;;;;17.23;10.30;;;11.30;56.40;;;;;;4981246;28;20506;-45
2022/04/16 06:41:59;;;;;;;17.23;10.38;;;11.40;56.40;;;;;;4979805;28;20054;-44
2022/04/16 06:44:29;;;;;;;18.50;10.75;;;11.40;56.50;;;;;;4981481;28;20065;-46
2022/04/16 06:46:56;;;;;;;16.75;10.00;;;11.50;56.50;;;;;;4981694;28;20522;-45
2022/04/16 06:49:25;;;;;;;18.95;10.50;;;11.50;56.50;;;;;;4981685;28;20062;-49
2022/04/16 06:51:53;;;;;;;16.48;10.48;;;11.60;56.40;;;;;;4978930;28;20498;-45
2022/04/16 06:54:20;;;;;;;16.17;9.60;;;11.70;56.40;;;;;;4980268;28;20058;-46
2022/04/16 06:56:48;;;;;;;15.93;10.45;;;11.80;56.40;;;;;;4983615;28;20062;-45
2022/04/16 06:59:15;;;;;;;15.30;9.70;;;11.80;56.30;;;;;;4984669;28;20054;-46
2022/04/16 07:01:44;;;;;;;18.83;10.68;;;11.90;56.20;;;;;;4982182;28;20486;-44
2022/04/16 07:04:11;;;;;;;17.08;10.07;;;12.00;56.10;;;;;;4985040;28;20050;-45
2022/04/16 07:06:42;;;;;;;18.25;10.40;;;12.10;56.10;;;;;;4984977;28;20431;-44
2022/04/16 07:09:10;;;;;;;16.63;9.43;;;12.10;55.90;;;;;;4983100;28;20054;-46
2022/04/16 07:11:37;;;;;;;15.48;10.40;;;12.20;55.80;;;;;;4982678;28;20061;-46
2022/04/16 07:14:05;;;;;;;16.10;10.10;;;12.20;55.70;;;;;;4984600;28;20065;-49
2022/04/16 07:16:32;;;;;;;17.90;10.60;;;12.30;55.60;;;;;;4980238;28;20062;-45
2022/04/16 07:19:01;;;;;;;16.10;9.95;;;12.40;55.50;;;;;;4981174;28;20047;-44
2022/04/16 07:21:28;;;;;;;17.67;10.02;;;12.40;55.40;;;;;;4983732;28;20065;-45
2022/04/16 07:23:56;;;;;;;15.13;9.73;;;12.50;55.30;;;;;;4983974;28;20414;-46
2022/04/16 07:26:24;;;;;;;16.67;10.38;;;12.60;55.10;;;;;;4984120;28;20069;-45
2022/04/16 07:28:51;;;;;;;16.08;10.73;;;12.70;55.10;;;;;;4943380;28;20047;-45
2022/04/16 07:31:19;;;;;;;18.02;11.32;;;12.70;54.90;;;;;;4944491;29;20060;-44
2022/04/16 07:33:46;;;;;;;15.00;9.52;;;12.70;54.80;;;;;;4946031;28;20491;-44
2022/04/16 07:36:15;;;;;;;17.25;10.70;;;12.90;54.70;;;;;;4943645;28;20491;-46
2022/04/16 07:38:43;;;;;;;16.85;10.48;;;12.90;54.60;;;;;;4945842;28;20494;-45
2022/04/16 07:41:11;;;;;;;17.05;10.55;;;12.90;54.60;;;;;;4944102;28;20051;-45
2022/04/16 07:43:38;;;;;;;16.45;10.50;;;13.00;54.30;;;;;;4943186;29;20055;-44
2022/04/16 07:46:05;;;;;;;16.27;10.70;;;13.10;54.30;;;;;;4944536;29;20059;-44
2022/04/16 07:48:34;;;;;;;18.08;11.20;;;13.20;54.20;;;;;;4944808;28;20074;-44
2022/04/16 07:51:01;;;;;;;20.13;12.02;;;13.20;53.90;;;;;;4943284;28;20058;-45
2022/04/16 07:53:30;;;;;;;28.65;16.00;;;13.20;53.70;;;;;;4943164;29;20435;-45
2022/04/16 07:55:58;;;;;;;17.30;10.75;;;13.30;53.80;;;;;;4942458;28;20062;-48
2022/04/16 07:58:26;;;;;;;17.15;10.05;;;13.30;53.50;;;;;;4943611;28;20522;-45
2022/04/16 08:00:54;;;;;;;14.73;9.50;;;13.40;53.30;;;;;;4945831;28;21130;-44
2022/04/16 08:03:21;;;;;;;16.70;9.75;;;13.40;53.10;;;;;;4944056;28;20059;-45
2022/04/16 08:05:49;;;;;;;13.15;8.48;;;13.40;53.10;;;;;;4945545;28;20063;-46
2022/04/16 08:08:16;;;;;;;15.90;9.00;;;13.50;53.10;;;;;;4944636;28;20404;-44
2022/04/16 08:10:46;;;;;;;11.90;7.97;;;13.50;53.00;;;;;;4944278;28;20059;-44
2022/04/16 08:13:13;;;;;;;15.10;8.63;;;13.60;52.90;;;;;;4940046;29;20067;-45
2022/04/16 08:15:40;;;;;;;11.93;7.38;;;13.60;52.70;;;;;;4943759;29;20070;-44
2022/04/16 08:18:08;;;;;;;12.25;7.85;;;13.60;52.50;;;;;;4944969;28;20063;-45
2022/04/16 08:20:35;;;;;;;11.68;7.60;;;13.70;52.40;;;;;;4943519;29;20051;-46
2022/04/16 08:23:06;;;;;;;12.25;7.47;;;13.70;52.20;;;;;;4940682;28;20059;-45
2022/04/16 08:25:46;;;;;;;11.30;7.30;;;13.70;52.10;;;;;;4940072;28;20058;-46
2022/04/16 08:28:15;;;;;;;13.05;6.75;;;13.80;52.00;;;;;;4970061;28;20066;-45
2022/04/16 08:30:43;;;;;;;10.23;7.30;;;13.80;52.10;;;;;;4982145;28;20051;-44
2022/04/16 08:33:15;;;;;;;9.75;6.35;;;13.90;51.90;;;;;;4982554;28;20057;-44
2022/04/16 08:35:43;;;;;;;9.43;6.03;;;13.90;51.60;;;;;;4981095;28;20061;-48
2022/04/16 08:38:12;;;;;;;8.85;5.82;;;13.90;51.80;;;;;;4980666;28;20398;-44
2022/04/16 08:40:40;;;;;;;9.77;6.40;;;14.00;51.80;;;;;;4982396;28;20061;-44
2022/04/16 08:43:08;;;;;;;9.77;6.03;;;14.00;51.70;;;;;;4981349;28;20061;-44
2022/04/16 08:45:39;;;;;;;8.30;5.65;;;14.10;51.70;;;;;;4983148;28;20884;-44
2022/04/16 08:48:07;;;;;;;8.48;5.57;;;14.10;51.50;;;;;;4983640;28;20058;-44
2022/04/16 08:50:35;;;;;;;8.45;5.47;;;14.20;51.20;;;;;;4980283;28;20069;-45
2022/04/16 08:53:03;;;;;;;7.78;5.10;;;14.30;51.00;;;;;;4982304;28;20510;-45
2022/04/16 08:55:30;;;;;;;7.72;5.43;;;14.30;50.70;;;;;;4980067;28;20058;-45
2022/04/16 08:57:58;;;;;;;7.57;4.82;;;14.40;50.50;;;;;;4982286;28;20069;-44
2022/04/16 09:00:26;;;;;;;8.07;5.03;;;14.50;50.30;;;;;;4980716;28;20046;-45
2022/04/16 09:02:58;;;;;;;6.72;4.22;;;14.60;50.20;;;;;;4979982;28;20046;-48
2022/04/16 09:05:27;;;;;;;7.90;4.30;;;14.60;49.80;;;;;;4982596;28;20065;-44
2022/04/16 09:07:57;;;;;;;7.10;4.43;;;14.70;49.60;;;;;;4982758;28;20449;-45
2022/04/16 09:10:27;;;;;;;6.10;3.70;;;14.70;49.00;;;;;;4981232;28;20676;-45
2022/04/16 09:12:57;;;;;;;6.45;3.92;;;14.80;49.00;;;;;;4978858;28;20061;-45
2022/04/16 09:15:26;;;;;;;9.10;3.33;;;14.80;48.70;;;;;;4979628;28;20062;-45
2022/04/16 09:18:03;;;;;;;10.25;3.53;;;14.90;48.20;;;;;;4982931;28;20075;-44
2022/04/16 09:20:35;;;;;;;3.88;2.90;;;14.90;47.80;;;;;;4982066;28;20517;-45
2022/04/16 09:23:14;;;;;;;3.67;2.80;;;14.90;47.70;;;;;;4977384;28;20077;-45
2022/04/16 09:25:45;;;;;;;5.72;3.38;;;15.00;47.70;;;;;;4980332;28;20050;-44
2022/04/16 09:28:15;;;;;;;6.25;3.33;;;15.00;47.40;;;;;;4980352;28;20077;-44
2022/04/16 09:30:50;;;;;;;6.88;3.10;;;14.90;47.30;;;;;;4982708;28;20133;-49
2022/04/16 09:33:19;;;;;;;4.70;2.58;;;14.90;46.90;;;;;;4962073;28;20505;-44
2022/04/16 09:35:47;;;;;;;5.68;3.08;;;14.90;47.30;;;;;;4978027;28;20101;-45
2022/04/16 09:38:15;;;;;;;4.18;3.08;;;14.90;47.30;;;;;;4980079;28;20536;-44
2022/04/16 09:40:47;;;;;;;4.82;3.13;;;14.90;47.10;;;;;;4982160;28;20062;-44
2022/04/16 09:43:15;;;;;;;5.32;3.22;;;14.90;46.80;;;;;;4980385;28;20442;-44
2022/04/16 09:45:43;;;;;;;5.55;2.97;;;14.90;46.50;;;;;;4982562;28;20050;-45
2022/04/16 09:48:12;;;;;;;3.67;2.90;;;14.90;46.50;;;;;;4982151;28;20054;-44
2022/04/16 09:50:41;;;;;;;3.92;2.55;;;14.90;46.70;;;;;;4982282;28;20057;-45
2022/04/16 09:53:10;;;;;;;4.18;2.60;;;14.90;46.80;;;;;;4979146;28;20057;-45
2022/04/16 09:55:38;;;;;;;4.88;3.00;;;14.90;46.90;;;;;;4978282;28;20054;-45
2022/04/16 09:58:07;;;;;;;2.97;2.13;;;15.00;46.80;;;;;;4981676;28;20148;-46
2022/04/16 10:00:36;;;;;;;4.35;2.83;;;15.00;47.00;;;;;;4982185;28;20058;-44
2022/04/16 10:03:08;;;;;;;4.20;2.55;;;15.00;47.10;;;;;;4978460;28;20089;-45
2022/04/16 10:05:36;;;;;;;5.00;2.90;;;15.00;47.20;;;;;;4980780;28;20062;-44
2022/04/16 10:08:06;;;;;;;4.43;2.92;;;15.00;47.10;;;;;;4980811;28;20058;-47
2022/04/16 10:10:40;;;;;;;7.55;3.05;;;15.10;47.20;;;;;;4981160;28;20430;-45
2022/04/16 10:13:10;;;;;;;;;;;15.10;46.80;;;;;;4980995;28;20046;-44
2022/04/16 10:15:54;;;;;;;4.10;2.67;;;15.20;46.80;;;;;;4979708;28;19922;-45
2022/04/16 10:18:21;;;;;;;4.73;2.53;;;15.20;46.80;;;;;;4982040;28;20065;-45
2022/04/16 10:20:53;;;;;;;3.47;2.60;;;15.30;46.90;;;;;;4980760;28;20058;-47
2022/04/16 10:23:30;;;;;;;6.05;3.10;;;15.30;46.50;;;;;;4977887;28;20050;-45
2022/04/16 10:26:05;;;;;;;3.58;2.28;;;15.40;46.10;;;;;;4979474;28;20061;-45
2022/04/16 10:28:38;;;;;;;3.85;2.40;;;15.50;46.40;;;;;;4981219;28;20065;-44
2022/04/16 10:31:06;;;;;;;5.10;2.72;;;15.50;46.10;;;;;;4984636;28;20516;-45
2022/04/16 10:33:34;;;;;;;4.35;2.85;;;15.60;45.70;;;;;;4982939;28;20067;-45
2022/04/16 10:36:05;;;;;;;4.35;2.80;;;15.60;45.70;;;;;;4984227;28;20428;-45
2022/04/16 10:38:37;;;;;;;3.67;2.63;;;15.70;45.40;;;;;;4985089;28;20499;-45
2022/04/16 10:41:11;;;;;;;5.47;2.53;;;15.70;44.80;;;;;;4984868;28;20071;-45
2022/04/16 10:43:38;;;;;;;4.18;2.45;;;15.70;44.90;;;;;;4982961;28;20050;-47
2022/04/16 10:46:07;;;;;;;4.63;3.13;;;15.70;45.20;;;;;;4985247;28;20054;-44
2022/04/16 10:48:36;;;;;;;5.72;3.22;;;15.70;45.30;;;;;;4983809;28;20062;-45
2022/04/16 10:51:05;;;;;;;3.42;2.42;;;15.80;44.90;;;;;;4984214;28;20271;-45
2022/04/16 10:53:36;;;;;;;3.80;2.65;;;15.80;44.90;;;;;;4984163;28;20054;-47
2022/04/16 10:56:14;;;;;;;3.38;2.38;;;15.80;45.00;;;;;;4982090;28;20058;-44
2022/04/16 10:58:42;;;;;;;4.13;2.67;;;15.90;45.00;;;;;;4985239;28;20065;-44
2022/04/16 11:01:11;;;;;;;3.03;2.30;;;15.90;44.60;;;;;;4984932;28;20058;-45
2022/04/16 11:03:49;;;;;;;5.50;2.78;;;15.90;44.70;;;;;;4983475;28;20065;-44
2022/04/16 11:06:18;;;;;;;6.35;2.63;;;15.90;44.20;;;;;;4984491;28;20058;-44
2022/04/16 11:08:47;;;;;;;4.53;2.40;;;15.90;44.30;;;;;;4985074;28;20050;-49
2022/04/16 11:11:16;;;;;;;4.85;2.33;;;15.90;44.30;;;;;;4983626;28;20062;-45
2022/04/16 11:13:44;;;;;;;3.63;2.25;;;15.90;43.90;;;;;;4983020;28;20069;-44
2022/04/16 11:16:12;;;;;;;3.45;2.40;;;16.00;44.10;;;;;;4983075;28;20713;-44
2022/04/16 11:18:43;;;;;;;3.42;2.55;;;16.00;44.30;;;;;;4983402;28;20065;-45
2022/04/16 11:21:12;;;;;;;3.00;2.10;;;16.00;44.10;;;;;;4982089;28;20054;-45
2022/04/16 11:23:44;;;;;;;2.78;2.25;;;16.00;43.70;;;;;;4984074;28;20050;-44
2022/04/16 11:34:31;;;;;;;4.65;2.30;;;16.20;43.10;;;;;;4983830;28;20056;-44
2022/04/16 11:37:00;;;;;;;2.75;2.10;;;16.30;43.10;;;;;;4981297;28;20065;-46
2022/04/16 11:39:30;;;;;;;4.35;2.22;;;16.30;43.20;;;;;;4981106;28;20405;-44
2022/04/16 11:42:00;;;;;;;4.00;2.30;;;16.30;42.80;;;;;;4981087;28;20062;-44
2022/04/16 11:44:38;;;;;;;2.95;2.08;;;16.40;42.70;;;;;;4983930;28;20494;-45
2022/04/16 11:47:09;;;;;;;4.65;2.40;;;16.40;42.10;;;;;;4983711;28;20426;-44
2022/04/16 11:49:38;;;;;;;2.78;2.10;;;16.40;41.90;;;;;;4984069;28;20065;-46
2022/04/16 11:52:06;;;;;;;3.38;2.10;;;16.40;42.20;;;;;;4981967;28;20062;-44
2022/04/16 11:54:33;;;;;;;4.80;1.92;;;16.40;42.20;;;;;;4982606;28;20061;-45
2022/04/16 11:57:02;;;;;;;3.00;2.10;;;16.40;42.30;;;;;;4983356;28;20058;-45
2022/04/16 11:59:30;;;;;;;3.83;2.40;;;16.40;42.70;;;;;;4984198;28;20058;-45
2022/04/16 12:02:05;;;;;;;3.45;2.45;;;16.40;42.60;;;;;;4979674;28;20050;-47
2022/04/16 12:04:37;;;;;;;2.85;2.05;;;16.40;42.50;;;;;;4983239;28;20065;-46
2022/04/16 12:07:10;;;;;;;3.15;2.00;;;16.50;42.00;;;;;;4981067;28;20055;-46
2022/04/16 12:09:37;;;;;;;3.85;2.20;;;16.50;41.50;;;;;;4983564;28;20061;-45
2022/04/16 12:12:07;;;;;;;4.10;2.20;;;16.50;41.50;;;;;;4982013;28;20058;-46
2022/04/16 12:14:44;;;;;;;3.95;1.92;;;16.50;40.80;;;;;;4982880;28;20498;-44
2022/04/16 12:17:12;;;;;;;2.53;1.50;;;16.50;41.00;;;;;;4982276;28;20058;-44
2022/04/16 12:19:42;;;;;;;2.08;1.63;;;16.60;40.80;;;;;;4982691;28;20498;-44
2022/04/16 12:22:17;;;;;;;2.28;1.48;;;16.60;40.60;;;;;;4982540;28;20058;-44
2022/04/16 12:24:44;;;;;;;3.67;1.73;;;16.60;40.00;;;;;;4980250;28;20058;-44
2022/04/16 12:27:24;;;;;;;2.15;1.63;;;16.60;40.10;;;;;;4982615;28;20067;-47
2022/04/16 12:29:54;;;;;;;1.90;1.27;;;16.70;39.80;;;;;;4982311;28;20414;-44
2022/04/16 12:32:26;;;;;;;1.80;1.13;;;16.70;39.70;;;;;;4982669;28;20061;-44
2022/04/16 12:34:53;;;;;;;4.10;1.15;;;16.70;39.80;;;;;;4982186;28;20058;-44
2022/04/16 12:37:21;;;;;;;1.52;1.00;;;16.70;39.40;;;;;;4983588;28;20065;-44
2022/04/16 12:39:49;;;;;;;2.50;1.40;;;16.70;38.80;;;;;;4980029;28;20864;-44
2022/04/16 12:42:18;;;;;;;2.65;1.42;;;16.70;38.60;;;;;;4980414;28;20406;-45
2022/04/16 12:44:46;;;;;;;1.73;1.05;;;16.70;38.80;;;;;;4977862;28;20055;-44
2022/04/16 12:47:14;;;;;;;2.58;1.48;;;16.70;39.10;;;;;;4983104;28;20429;-44
2022/04/16 12:49:41;;;;;;;2.13;1.00;;;16.70;38.70;;;;;;4982991;28;20520;-44
2022/04/16 12:52:09;;;;;;;1.98;1.20;;;16.70;37.60;;;;;;4980628;28;20046;-44
2022/04/16 12:54:37;;;;;;;3.67;1.00;;;16.80;38.00;;;;;;4980222;28;20050;-49
2022/04/16 12:57:04;;;;;;;1.95;1.00;;;16.80;37.80;;;;;;4981810;28;20058;-47
2022/04/16 12:59:33;;;;;;;1.98;0.80;;;16.80;37.70;;;;;;4980833;28;20503;-45
2022/04/16 13:02:01;;;;;;;2.35;1.30;;;16.80;37.60;;;;;;4982328;28;20054;-44
2022/04/16 13:04:30;;;;;;;1.67;1.20;;;16.80;37.10;;;;;;4982776;28;20058;-44
2022/04/16 13:06:58;;;;;;;2.50;1.30;;;16.80;37.50;;;;;;4980109;28;20057;-43
2022/04/16 13:09:25;;;;;;;2.78;1.02;;;16.90;36.90;;;;;;4981933;28;20058;-44
2022/04/16 13:11:53;;;;;;;1.52;1.10;;;16.90;37.20;;;;;;4981034;28;20061;-43
2022/04/16 13:14:22;;;;;;;1.35;0.88;;;16.90;36.20;;;;;;4979091;28;20054;-44
2022/04/16 13:16:51;;;;;;;1.30;1.00;;;16.90;35.60;;;;;;4982733;28;20501;-44